Time;durP1;ratioP1;P1;durP2;ratioP2;P2;SDS_P1;SDS_P2;PMS_P1;PMS_P2;Temp;Humidity;BMP_temperature;BMP_pressure;BME280_temperature;BME280_humidity;BME280_pressure;Samples;Min_cycle;Max_cycle;Signal;HPM_P1;HPM_P2
2021/09/11 00:02:19;;;;;;;4.68;2.22;;;18.10;93.30;;;;;;5073850;28;20028;-71
2021/09/11 00:04:46;;;;;;;4.50;2.40;;;18.20;92.90;;;;;;5073786;28;20033;-70
2021/09/11 00:07:13;;;;;;;3.58;2.35;;;18.10;93.20;;;;;;5073684;28;20040;-72
2021/09/11 00:09:39;;;;;;;4.20;2.60;;;18.00;93.30;;;;;;5074048;28;20020;-72
2021/09/11 00:12:06;;;;;;;6.32;2.42;;;17.90;93.40;;;;;;5073677;28;20024;-71
2021/09/11 00:14:32;;;;;;;6.47;2.78;;;17.80;93.70;;;;;;5073577;28;20024;-69
2021/09/11 00:16:57;;;;;;;3.55;2.47;;;17.80;93.40;;;;;;5074166;28;20016;-70
2021/09/11 00:19:23;;;;;;;4.05;2.30;;;17.80;93.30;;;;;;5074065;28;20024;-70
2021/09/11 00:21:49;;;;;;;4.43;2.28;;;17.80;93.60;;;;;;5073804;28;20031;-71
2021/09/11 00:24:14;;;;;;;4.68;2.60;;;17.70;93.60;;;;;;5073466;28;20029;-70
2021/09/11 00:26:40;;;;;;;6.60;2.58;;;17.80;93.70;;;;;;5073401;28;20524;-70
2021/09/11 00:29:06;;;;;;;5.57;2.78;;;17.80;93.10;;;;;;5073717;28;20024;-70
2021/09/11 00:31:32;;;;;;;4.65;2.28;;;17.80;93.30;;;;;;5073404;28;20021;-72
2021/09/11 00:33:58;;;;;;;7.13;3.17;;;17.70;93.70;;;;;;5073410;28;20081;-72
2021/09/11 00:36:23;;;;;;;4.35;2.63;;;17.70;93.40;;;;;;5073609;28;20025;-72
2021/09/11 00:38:49;;;;;;;7.53;3.33;;;17.80;93.50;;;;;;5073605;28;20025;-72
2021/09/11 00:41:15;;;;;;;3.42;2.70;;;17.70;93.60;;;;;;5073314;28;20025;-71
2021/09/11 00:43:49;;;;;;;5.05;2.97;;;17.80;93.40;;;;;;5073260;28;20028;-70
2021/09/11 00:46:16;;;;;;;6.95;2.78;;;17.70;93.40;;;;;;5073225;28;20016;-71
2021/09/11 00:48:42;;;;;;;2.75;2.20;;;17.70;93.30;;;;;;5073233;28;20021;-71
2021/09/11 00:51:08;;;;;;;5.47;2.67;;;17.90;92.30;;;;;;5073221;28;20047;-70
2021/09/11 00:53:34;;;;;;;4.93;2.33;;;18.00;91.90;;;;;;5073393;28;20024;-72
2021/09/11 00:56:00;;;;;;;4.50;3.03;;;17.90;91.50;;;;;;5073476;28;20108;-70
2021/09/11 00:58:27;;;;;;;4.75;2.50;;;17.80;92.40;;;;;;5073061;28;20025;-71
2021/09/11 01:00:52;;;;;;;5.97;2.72;;;17.70;92.70;;;;;;5073085;28;20067;-71
2021/09/11 01:03:18;;;;;;;5.07;2.88;;;17.60;92.90;;;;;;5073327;28;20032;-70
2021/09/11 01:05:44;;;;;;;5.45;2.80;;;17.60;92.70;;;;;;5073023;28;20090;-72
2021/09/11 01:08:10;;;;;;;5.55;2.78;;;17.60;92.90;;;;;;5072767;28;20115;-70
2021/09/11 01:10:40;;;;;;;4.60;2.40;;;17.60;92.80;;;;;;5073293;28;20021;-72
2021/09/11 01:13:11;;;;;;;5.07;2.72;;;17.50;92.80;;;;;;5073030;28;20049;-72
2021/09/11 01:15:39;;;;;;;5.28;2.40;;;17.60;92.80;;;;;;5073084;28;20082;-71
2021/09/11 01:18:06;;;;;;;4.18;2.45;;;17.50;93.20;;;;;;5072988;28;20056;-71
2021/09/11 01:20:32;;;;;;;6.50;2.95;;;17.40;93.30;;;;;;5072868;28;20099;-71
2021/09/11 01:22:58;;;;;;;4.80;2.80;;;17.30;93.50;;;;;;5072910;28;20024;-72
2021/09/11 01:25:24;;;;;;;4.60;2.78;;;17.30;93.80;;;;;;5072854;28;20108;-69
2021/09/11 01:27:51;;;;;;;5.18;3.00;;;17.30;93.70;;;;;;5072771;28;20086;-69
2021/09/11 01:30:19;;;;;;;5.35;2.70;;;17.40;93.10;;;;;;5072867;28;20017;-71
2021/09/11 01:32:46;;;;;;;4.38;2.78;;;17.40;93.20;;;;;;5073119;28;20025;-72
2021/09/11 01:35:12;;;;;;;4.10;2.55;;;17.40;93.10;;;;;;5072805;28;20477;-71
2021/09/11 01:37:37;;;;;;;6.38;2.90;;;17.30;93.20;;;;;;5072758;28;20067;-71
2021/09/11 01:40:05;;;;;;;3.97;2.30;;;17.30;93.30;;;;;;5072974;28;20025;-71
2021/09/11 01:42:31;;;;;;;6.10;2.55;;;17.20;93.10;;;;;;5072641;28;20033;-72
2021/09/11 01:44:59;;;;;;;5.10;2.80;;;17.20;93.00;;;;;;5073234;28;20031;-71
2021/09/11 01:47:25;;;;;;;4.20;2.70;;;17.20;93.00;;;;;;5072556;28;20127;-72
2021/09/11 01:49:51;;;;;;;4.30;2.67;;;17.20;92.80;;;;;;5072888;28;20032;-70
2021/09/11 01:52:17;;;;;;;3.58;2.40;;;17.30;92.60;;;;;;5073191;28;20095;-71
2021/09/11 01:54:43;;;;;;;3.60;2.65;;;17.30;92.20;;;;;;5072602;28;20102;-70
2021/09/11 01:57:10;;;;;;;3.55;2.40;;;17.20;92.30;;;;;;5072528;28;20542;-71
2021/09/11 01:59:36;;;;;;;4.65;2.85;;;17.20;92.10;;;;;;5072500;28;20016;-72
2021/09/11 02:02:04;;;;;;;3.63;2.67;;;17.10;92.30;;;;;;5072779;28;20382;-71
2021/09/11 02:04:30;;;;;;;8.40;2.75;;;17.00;92.40;;;;;;5072479;28;20024;-70
2021/09/11 02:06:56;;;;;;;7.22;2.60;;;17.10;92.30;;;;;;5073711;28;20034;-72
2021/09/11 02:09:22;;;;;;;4.68;2.33;;;17.00;92.50;;;;;;5076353;28;20086;-71
2021/09/11 02:11:47;;;;;;;5.32;3.15;;;17.00;92.60;;;;;;5076226;28;20023;-72
2021/09/11 02:14:13;;;;;;;4.00;2.25;;;17.00;92.60;;;;;;5076216;28;20078;-70
2021/09/11 02:16:39;;;;;;;5.53;2.75;;;16.80;92.60;;;;;;5074629;28;20551;-71
2021/09/11 02:19:04;;;;;;;3.55;2.40;;;16.90;92.40;;;;;;5075903;28;20025;-70
2021/09/11 02:21:30;;;;;;;3.33;2.63;;;16.90;92.20;;;;;;5076142;28;20032;-72
2021/09/11 02:23:56;;;;;;;4.03;2.65;;;16.90;92.30;;;;;;5075843;28;20391;-71
2021/09/11 02:26:22;;;;;;;3.38;2.70;;;17.00;92.20;;;;;;5075631;28;20028;-71
2021/09/11 02:28:47;;;;;;;4.60;2.90;;;17.10;92.20;;;;;;5075950;28;20028;-71
2021/09/11 02:31:13;;;;;;;5.95;3.05;;;17.00;92.40;;;;;;5075655;28;20020;-72
2021/09/11 02:33:41;;;;;;;4.88;3.05;;;16.80;93.70;;;;;;5075614;28;20493;-70
2021/09/11 02:36:07;;;;;;;5.63;3.15;;;16.90;93.60;;;;;;5075893;28;20567;-69
2021/09/11 02:38:33;;;;;;;6.85;3.88;;;16.90;93.40;;;;;;5075544;28;20060;-71
2021/09/11 02:40:59;;;;;;;5.65;3.30;;;16.90;93.70;;;;;;5076049;28;20086;-70
2021/09/11 02:43:24;;;;;;;3.30;2.20;;;16.90;92.70;;;;;;5075491;28;20104;-71
2021/09/11 02:45:50;;;;;;;3.08;1.98;;;16.80;91.60;;;;;;5075688;28;20027;-71
2021/09/11 02:48:16;;;;;;;3.45;2.28;;;16.70;91.60;;;;;;5075287;28;20394;-72
2021/09/11 02:50:41;;;;;;;4.75;2.15;;;16.60;91.40;;;;;;5075311;28;20027;-71
2021/09/11 02:53:07;;;;;;;2.58;2.10;;;16.60;91.00;;;;;;5075311;28;20039;-71
2021/09/11 02:55:33;;;;;;;2.90;1.88;;;16.60;90.90;;;;;;5075483;28;20385;-71
2021/09/11 02:57:58;;;;;;;3.45;1.98;;;16.70;90.70;;;;;;5075381;28;20514;-71
2021/09/11 03:00:24;;;;;;;3.70;2.40;;;16.70;90.90;;;;;;5075348;28;20382;-69
2021/09/11 03:02:50;;;;;;;5.45;2.38;;;16.80;90.90;;;;;;5075369;28;20036;-70
2021/09/11 03:05:15;;;;;;;4.88;2.75;;;16.70;90.60;;;;;;5075054;28;20024;-70
2021/09/11 03:07:41;;;;;;;3.25;2.17;;;16.60;90.50;;;;;;5074680;28;20098;-70
2021/09/11 03:10:09;;;;;;;6.10;2.70;;;16.60;90.60;;;;;;5074801;28;20048;-71
2021/09/11 03:12:34;;;;;;;7.15;2.80;;;16.60;90.80;;;;;;5074796;28;20028;-71
2021/09/11 03:15:00;;;;;;;4.82;2.60;;;16.50;90.80;;;;;;5074833;28;20074;-71
2021/09/11 03:17:25;;;;;;;4.72;2.40;;;16.50;91.00;;;;;;5075014;28;20059;-72
2021/09/11 03:19:51;;;;;;;4.55;2.50;;;16.50;91.20;;;;;;5074963;28;20032;-71
2021/09/11 03:22:17;;;;;;;3.92;2.25;;;16.40;91.30;;;;;;5074946;28;20024;-71
2021/09/11 03:24:42;;;;;;;5.10;2.70;;;16.30;91.60;;;;;;5074622;28;20020;-72
2021/09/11 03:27:08;;;;;;;5.10;2.92;;;16.20;91.80;;;;;;5074480;28;20123;-71
2021/09/11 03:29:34;;;;;;;4.55;2.65;;;16.10;92.30;;;;;;5074520;28;20023;-70
2021/09/11 03:31:59;;;;;;;5.18;2.97;;;16.00;92.20;;;;;;5074480;28;20036;-71
2021/09/11 03:34:26;;;;;;;4.47;2.58;;;16.00;92.40;;;;;;5074654;28;20028;-71
2021/09/11 03:36:52;;;;;;;4.22;2.40;;;16.00;92.20;;;;;;5074942;28;20494;-72
2021/09/11 03:39:17;;;;;;;5.15;2.67;;;16.00;92.10;;;;;;5074347;28;20025;-70
2021/09/11 03:41:43;;;;;;;5.55;2.92;;;15.90;92.00;;;;;;5074272;28;20035;-71
2021/09/11 03:44:09;;;;;;;7.28;3.55;;;15.90;92.50;;;;;;5074193;28;20028;-71
2021/09/11 03:46:35;;;;;;;7.70;3.22;;;15.80;93.10;;;;;;5074139;28;20494;-71
2021/09/11 03:49:00;;;;;;;5.88;3.10;;;15.70;93.40;;;;;;5074391;28;20028;-69
2021/09/11 03:51:26;;;;;;;5.95;3.15;;;15.70;93.40;;;;;;5074634;28;20028;-70
2021/09/11 03:53:52;;;;;;;5.60;3.17;;;15.60;93.70;;;;;;5074037;28;20032;-69
2021/09/11 03:56:17;;;;;;;4.28;2.72;;;15.80;93.30;;;;;;5073952;28;20482;-71
2021/09/11 03:58:43;;;;;;;5.40;2.78;;;15.80;92.20;;;;;;5074159;28;20031;-69
2021/09/11 04:01:09;;;;;;;3.85;2.60;;;15.80;91.90;;;;;;5074184;28;20037;-69
2021/09/11 04:03:35;;;;;;;3.88;2.22;;;15.90;91.30;;;;;;5073889;28;20544;-70
2021/09/11 04:06:00;;;;;;;5.20;2.40;;;16.00;90.90;;;;;;5073832;28;20493;-71
2021/09/11 04:08:30;;;;;;;5.63;2.40;;;16.00;90.80;;;;;;5073306;28;20087;-70
2021/09/11 04:10:56;;;;;;;3.60;2.63;;;16.00;91.10;;;;;;5073780;28;20033;-70
2021/09/11 04:13:22;;;;;;;6.82;2.63;;;15.90;90.70;;;;;;5074239;28;20262;-70
2021/09/11 04:15:47;;;;;;;3.38;2.42;;;15.90;90.50;;;;;;5073665;28;20028;-72
2021/09/11 04:18:13;;;;;;;6.22;2.72;;;15.90;90.40;;;;;;5073894;28;20099;-72
2021/09/11 04:20:38;;;;;;;6.43;2.90;;;15.90;90.80;;;;;;5073575;28;20027;-71
2021/09/11 04:23:04;;;;;;;4.80;2.35;;;15.90;91.10;;;;;;5073799;28;20031;-70
2021/09/11 04:25:30;;;;;;;4.70;2.47;;;15.80;91.50;;;;;;5074057;28;20075;-70
2021/09/11 04:27:55;;;;;;;4.63;2.17;;;15.80;91.10;;;;;;5073412;28;20036;-70
2021/09/11 04:30:21;;;;;;;4.63;2.75;;;15.80;90.60;;;;;;5072998;28;20458;-70
2021/09/11 04:32:47;;;;;;;3.30;2.33;;;15.80;91.00;;;;;;5072114;28;20013;-69
2021/09/11 04:35:12;;;;;;;5.13;2.38;;;15.80;90.80;;;;;;5073368;28;20020;-70
2021/09/11 04:37:38;;;;;;;4.20;2.67;;;15.80;90.80;;;;;;5073334;28;20025;-70
2021/09/11 04:40:05;;;;;;;2.72;2.05;;;15.70;91.00;;;;;;5073335;28;20033;-70
2021/09/11 04:42:31;;;;;;;3.95;2.45;;;15.60;90.80;;;;;;5073647;28;20024;-71
2021/09/11 04:44:56;;;;;;;4.93;2.55;;;15.70;90.30;;;;;;5073287;28;20497;-72
2021/09/11 04:47:22;;;;;;;5.70;2.58;;;15.60;90.40;;;;;;5073165;28;20474;-72
2021/09/11 04:49:48;;;;;;;4.90;2.92;;;15.70;90.50;;;;;;5073240;28;20033;-72
2021/09/11 04:52:13;;;;;;;5.68;2.30;;;15.60;90.70;;;;;;5073199;28;20474;-69
2021/09/11 04:54:39;;;;;;;4.68;3.10;;;15.60;90.70;;;;;;5073202;28;20031;-71
2021/09/11 04:57:05;;;;;;;5.32;2.78;;;15.60;91.00;;;;;;5073701;28;20056;-71
2021/09/11 04:59:30;;;;;;;4.07;2.80;;;15.50;91.20;;;;;;5073655;28;20103;-69
2021/09/11 05:01:57;;;;;;;3.50;2.58;;;15.50;91.30;;;;;;5073353;28;20024;-71
2021/09/11 05:04:23;;;;;;;5.50;2.65;;;15.60;91.00;;;;;;5073346;28;20048;-69
2021/09/11 05:06:48;;;;;;;4.70;2.70;;;15.50;91.30;;;;;;5073050;28;20048;-71
2021/09/11 05:09:14;;;;;;;3.95;2.47;;;15.40;91.30;;;;;;5073573;28;20036;-70
2021/09/11 05:11:40;;;;;;;5.35;2.90;;;15.30;91.30;;;;;;5072967;28;20024;-70
2021/09/11 05:14:06;;;;;;;4.40;2.63;;;15.40;91.10;;;;;;5072981;28;20101;-70
2021/09/11 05:16:31;;;;;;;3.67;2.55;;;15.30;90.80;;;;;;5072917;28;20092;-70
2021/09/11 05:18:57;;;;;;;3.55;2.28;;;15.30;91.00;;;;;;5072997;28;20368;-70
2021/09/11 05:21:23;;;;;;;4.53;2.55;;;15.30;90.80;;;;;;5072895;28;20020;-71
2021/09/11 05:23:48;;;;;;;3.92;2.65;;;15.40;90.90;;;;;;5073159;28;20024;-69
2021/09/11 05:26:14;;;;;;;6.53;2.80;;;15.40;90.80;;;;;;5073069;28;20050;-69
2021/09/11 05:28:40;;;;;;;3.80;2.60;;;15.30;91.00;;;;;;5073093;28;20090;-69
2021/09/11 05:31:05;;;;;;;5.57;2.97;;;15.10;91.30;;;;;;5072844;28;20024;-71
2021/09/11 05:33:31;;;;;;;3.33;2.25;;;15.00;91.00;;;;;;5072800;28;20027;-71
2021/09/11 05:35:56;;;;;;;5.30;2.30;;;15.10;90.70;;;;;;5072755;28;20032;-69
2021/09/11 05:38:22;;;;;;;3.30;2.22;;;15.10;90.50;;;;;;5072717;28;20021;-69
2021/09/11 05:40:48;;;;;;;5.38;2.70;;;15.10;90.20;;;;;;5072750;28;20036;-70
2021/09/11 05:43:13;;;;;;;6.97;2.80;;;15.00;90.50;;;;;;5076102;28;20025;-69
2021/09/11 05:45:39;;;;;;;7.15;2.85;;;15.00;90.40;;;;;;5076532;28;20063;-70
2021/09/11 05:48:05;;;;;;;3.70;2.20;;;14.90;90.70;;;;;;5076643;28;20028;-71
2021/09/11 05:50:30;;;;;;;4.22;2.67;;;14.90;90.50;;;;;;5076960;28;20032;-70
2021/09/11 05:52:56;;;;;;;4.65;2.67;;;14.90;90.70;;;;;;5076917;28;20031;-71
2021/09/11 05:55:22;;;;;;;3.22;2.08;;;14.80;90.40;;;;;;5076320;28;20095;-70
2021/09/11 05:57:48;;;;;;;4.63;1.90;;;14.90;90.40;;;;;;5076805;28;20155;-71
2021/09/11 06:00:14;;;;;;;6.25;2.58;;;15.00;90.00;;;;;;5076257;28;20028;-70
2021/09/11 06:02:40;;;;;;;8.13;2.63;;;15.10;89.90;;;;;;5076252;28;20516;-69
2021/09/11 06:05:06;;;;;;;3.80;2.20;;;15.10;89.50;;;;;;5076424;28;20036;-71
2021/09/11 06:07:33;;;;;;;3.20;2.03;;;15.10;89.30;;;;;;5075875;28;20041;-70
2021/09/11 06:10:02;;;;;;;4.10;2.00;;;15.10;89.20;;;;;;5076084;28;20095;-71
2021/09/11 06:12:28;;;;;;;7.35;2.10;;;15.10;88.60;;;;;;5076073;28;20017;-70
2021/09/11 06:14:54;;;;;;;4.22;2.10;;;15.00;90.00;;;;;;5075951;28;20035;-70
2021/09/11 06:17:19;;;;;;;4.53;2.22;;;15.00;90.40;;;;;;5075964;28;20390;-71
2021/09/11 06:19:45;;;;;;;6.30;2.25;;;15.00;90.40;;;;;;5075941;28;20378;-71
2021/09/11 06:22:13;;;;;;;4.38;2.17;;;14.90;91.50;;;;;;5076135;28;20074;-71
2021/09/11 06:24:39;;;;;;;5.80;2.72;;;14.80;91.80;;;;;;5076377;28;20025;-70
2021/09/11 06:27:05;;;;;;;5.10;2.40;;;14.80;92.00;;;;;;5075772;28;20048;-70
2021/09/11 06:29:31;;;;;;;3.85;2.50;;;14.80;92.70;;;;;;5075756;28;20028;-71
2021/09/11 06:31:57;;;;;;;4.43;2.40;;;14.80;92.80;;;;;;5075734;28;20019;-70
2021/09/11 06:34:22;;;;;;;4.65;2.53;;;14.90;92.70;;;;;;5075592;28;20098;-71
2021/09/11 06:36:48;;;;;;;4.63;2.30;;;14.90;92.90;;;;;;5075631;28;20103;-69
2021/09/11 06:39:14;;;;;;;3.63;2.42;;;14.90;92.80;;;;;;5075521;28;20029;-71
2021/09/11 06:41:39;;;;;;;4.10;2.35;;;14.90;92.40;;;;;;5075504;28;20016;-70
2021/09/11 06:44:05;;;;;;;6.70;2.10;;;14.90;92.70;;;;;;5075442;28;20111;-71
2021/09/11 06:46:31;;;;;;;4.78;2.60;;;14.90;92.70;;;;;;5075323;28;20030;-70
2021/09/11 06:48:57;;;;;;;3.90;2.40;;;15.10;92.60;;;;;;5075611;28;20021;-70
2021/09/11 06:51:22;;;;;;;5.43;2.30;;;15.40;91.90;;;;;;5075569;28;20031;-72
2021/09/11 06:53:49;;;;;;;5.97;2.60;;;15.60;91.70;;;;;;5074907;28;20025;-71
2021/09/11 06:56:15;;;;;;;4.45;2.30;;;15.90;91.60;;;;;;5075513;28;20020;-70
2021/09/11 06:58:41;;;;;;;5.32;2.10;;;16.20;91.10;;;;;;5075655;28;20020;-72
2021/09/11 07:01:06;;;;;;;2.90;2.10;;;16.50;90.40;;;;;;5075136;28;20025;-71
2021/09/11 07:03:32;;;;;;;4.68;2.58;;;16.80;89.90;;;;;;5074375;28;20048;-70
2021/09/11 07:06:01;;;;;;;7.00;2.83;;;16.70;90.00;;;;;;5075332;28;20029;-71
2021/09/11 07:08:27;;;;;;;5.63;2.20;;;16.60;90.30;;;;;;5074736;28;20048;-72
2021/09/11 07:10:52;;;;;;;3.00;2.45;;;16.60;90.30;;;;;;5075476;28;20017;-70
2021/09/11 07:13:18;;;;;;;6.00;3.05;;;16.70;90.30;;;;;;5075147;28;20518;-70
2021/09/11 07:15:44;;;;;;;7.60;2.90;;;16.70;90.60;;;;;;5075074;28;20479;-71
2021/09/11 07:18:09;;;;;;;5.93;3.22;;;16.60;90.80;;;;;;5074770;28;20040;-71
2021/09/11 07:20:35;;;;;;;13.68;7.43;;;16.70;91.20;;;;;;5075009;28;20025;-70
2021/09/11 07:23:01;;;;;;;8.75;5.43;;;16.70;91.50;;;;;;5074664;28;20029;-71
2021/09/11 07:25:27;;;;;;;122.68;53.22;;;16.70;91.60;;;;;;5073394;28;20556;-71
2021/09/11 07:27:52;;;;;;;202.05;87.32;;;16.70;91.80;;;;;;5074499;28;20078;-71
2021/09/11 07:30:18;;;;;;;81.18;40.53;;;16.80;91.80;;;;;;5074574;28;20013;-71
2021/09/11 07:32:44;;;;;;;55.25;29.38;;;17.00;92.00;;;;;;5074504;28;20021;-72
2021/09/11 07:35:10;;;;;;;51.15;28.20;;;17.30;91.70;;;;;;5074474;28;20028;-71
2021/09/11 07:37:35;;;;;;;57.88;30.38;;;17.60;91.00;;;;;;5074411;28;20036;-72
2021/09/11 07:40:01;;;;;;;53.42;28.05;;;17.90;90.60;;;;;;5074411;28;20052;-70
2021/09/11 07:42:27;;;;;;;44.92;25.15;;;18.20;89.60;;;;;;5074254;28;20035;-72
2021/09/11 07:44:52;;;;;;;18.05;9.68;;;18.50;88.60;;;;;;5074541;28;20059;-72
2021/09/11 07:47:18;;;;;;;16.35;9.07;;;18.90;86.90;;;;;;5074404;28;20390;-71
2021/09/11 07:49:44;;;;;;;12.02;6.22;;;19.20;87.00;;;;;;5072941;28;20497;-71
2021/09/11 07:52:10;;;;;;;8.82;4.15;;;19.50;84.00;;;;;;5074111;28;20390;-72
2021/09/11 07:54:36;;;;;;;8.65;3.40;;;19.70;84.10;;;;;;5074082;28;20021;-72
2021/09/11 07:57:02;;;;;;;5.20;3.15;;;19.90;84.30;;;;;;5074036;28;20040;-70
2021/09/11 07:59:28;;;;;;;6.50;3.30;;;20.10;82.90;;;;;;5073972;28;20048;-71
2021/09/11 08:01:53;;;;;;;8.30;3.10;;;20.40;81.70;;;;;;5074214;28;20121;-70
2021/09/11 08:04:19;;;;;;;4.97;3.10;;;20.60;82.00;;;;;;5073503;28;20032;-72
2021/09/11 08:06:45;;;;;;;5.00;3.03;;;20.90;81.00;;;;;;5073817;28;20028;-71
2021/09/11 08:09:10;;;;;;;6.70;3.35;;;21.10;80.20;;;;;;5073767;28;20551;-70
2021/09/11 08:11:36;;;;;;;5.70;3.00;;;21.30;79.10;;;;;;5073995;28;20501;-72
2021/09/11 08:14:02;;;;;;;4.38;2.63;;;21.60;78.70;;;;;;5073990;28;20469;-72
2021/09/11 08:16:28;;;;;;;6.18;2.97;;;21.90;77.50;;;;;;5074251;28;20020;-72
2021/09/11 08:18:54;;;;;;;6.70;3.47;;;22.10;76.50;;;;;;5073962;28;20055;-72
2021/09/11 08:21:20;;;;;;;5.28;2.88;;;22.00;76.80;;;;;;5073637;28;20021;-71
2021/09/11 08:23:46;;;;;;;11.27;5.75;;;22.40;76.80;;;;;;5073568;28;20029;-72
2021/09/11 08:26:12;;;;;;;8.55;4.70;;;22.80;74.80;;;;;;5073556;28;20047;-72
2021/09/11 08:28:38;;;;;;;7.97;3.63;;;22.90;74.60;;;;;;5073418;28;20059;-71
2021/09/11 08:31:03;;;;;;;5.63;3.92;;;23.10;74.60;;;;;;5074044;28;20021;-72
2021/09/11 08:33:29;;;;;;;6.97;3.40;;;23.30;73.50;;;;;;5073745;28;20526;-71
2021/09/11 08:35:55;;;;;;;6.10;3.38;;;23.70;71.10;;;;;;5073418;28;20100;-72
2021/09/11 08:38:20;;;;;;;5.22;3.05;;;24.00;70.60;;;;;;5073976;28;20035;-72
2021/09/11 08:40:46;;;;;;;8.13;3.53;;;24.20;69.30;;;;;;5073318;28;20483;-72
2021/09/11 08:43:16;;;;;;;7.38;3.53;;;24.20;69.10;;;;;;5073330;28;20027;-72
2021/09/11 08:45:42;;;;;;;7.32;3.60;;;24.30;68.80;;;;;;5073906;28;20032;-71
2021/09/11 08:48:08;;;;;;;6.22;3.45;;;24.50;68.80;;;;;;5073453;28;20043;-71
2021/09/11 08:50:33;;;;;;;12.55;3.97;;;24.60;68.60;;;;;;5073162;28;20482;-71
2021/09/11 08:52:59;;;;;;;8.48;3.85;;;24.60;68.30;;;;;;5071891;28;20031;-73
2021/09/11 08:55:25;;;;;;;6.10;4.05;;;25.00;66.90;;;;;;5073141;28;20021;-72
2021/09/11 08:58:08;;;;;;;12.27;3.60;;;25.20;65.50;;;;;;5073375;28;20086;-71
2021/09/11 09:00:41;;;;;;;5.57;3.20;;;25.50;64.80;;;;;;5071879;28;20036;-72
2021/09/11 09:03:24;;;;;;;6.35;2.70;;;25.80;63.30;;;;;;5073455;28;20054;-72
2021/09/11 09:05:50;;;;;;;5.25;2.65;;;26.10;61.10;;;;;;5073141;28;20095;-79
2021/09/11 09:08:26;;;;;;;7.82;2.47;;;26.30;61.30;;;;;;5072782;28;20055;-79
2021/09/11 09:10:52;;;;;;;5.18;2.47;;;26.40;60.40;;;;;;5073338;28;20025;-73
2021/09/11 09:13:17;;;;;;;6.15;2.90;;;26.30;61.10;;;;;;5072996;28;20433;-72
2021/09/11 09:15:43;;;;;;;6.65;3.30;;;26.30;61.10;;;;;;5074302;28;20028;-73
2021/09/11 09:18:09;;;;;;;4.82;3.25;;;26.30;62.20;;;;;;5077302;28;20378;-71
2021/09/11 09:20:34;;;;;;;5.85;3.17;;;26.40;60.90;;;;;;5076978;28;20033;-72
2021/09/11 09:23:00;;;;;;;4.40;2.80;;;26.90;60.30;;;;;;5077195;28;20089;-72
2021/09/11 09:25:33;;;;;;;4.97;2.53;;;27.20;59.20;;;;;;5076925;28;20085;-72
2021/09/11 09:28:03;;;;;;;4.30;2.60;;;27.60;58.30;;;;;;5077407;28;20023;-72
2021/09/11 09:30:35;;;;;;;3.72;2.60;;;27.80;56.70;;;;;;5075540;28;20394;-72
2021/09/11 09:33:01;;;;;;;3.28;2.30;;;27.90;56.00;;;;;;5077095;28;20020;-73
2021/09/11 09:35:26;;;;;;;4.93;2.55;;;28.00;55.40;;;;;;5076721;28;20027;-72
2021/09/11 09:38:00;;;;;;;3.78;2.10;;;28.20;55.10;;;;;;5077290;28;20032;-71
2021/09/11 09:40:55;;;;;;;3.85;2.58;;;28.40;54.20;;;;;;5077007;28;20035;-79
2021/09/11 09:43:31;;;;;;;5.93;2.00;;;28.50;53.40;;;;;;5059545;28;20407;-72
2021/09/11 09:46:09;;;;;;;3.97;1.70;;;28.60;53.00;;;;;;5077056;28;20035;-79
2021/09/11 09:48:36;;;;;;;3.47;1.58;;;28.50;52.00;;;;;;5076592;28;20021;-76
2021/09/11 09:51:16;;;;;;;4.50;1.40;;;28.20;54.80;;;;;;5076671;28;20028;-75
2021/09/11 09:53:47;;;;;;;2.47;1.40;;;28.00;51.80;;;;;;5076973;28;20012;-75
2021/09/11 09:56:13;;;;;;;4.32;1.88;;;27.80;53.80;;;;;;5076453;28;20028;-74
2021/09/11 09:58:39;;;;;;;4.93;1.85;;;27.80;54.80;;;;;;5076451;28;20021;-73
2021/09/11 10:01:05;;;;;;;3.58;1.90;;;27.60;55.30;;;;;;5076487;28;20053;-73
2021/09/11 10:03:31;;;;;;;4.88;1.90;;;27.40;54.10;;;;;;5076231;28;20032;-75
2021/09/11 10:06:04;;;;;;;5.18;2.03;;;27.10;55.10;;;;;;5076749;28;20028;-74
2021/09/11 10:08:31;;;;;;;2.83;1.30;;;27.10;54.20;;;;;;5075821;28;20045;-73
2021/09/11 10:10:56;;;;;;;6.60;1.75;;;26.90;55.90;;;;;;5075897;28;20024;-73
2021/09/11 10:13:23;;;;;;;4.82;2.17;;;26.80;55.30;;;;;;5075862;28;20023;-72
2021/09/11 10:15:52;;;;;;;2.70;1.77;;;26.70;54.70;;;;;;5075854;28;20066;-73
2021/09/11 10:18:30;;;;;;;3.95;1.52;;;26.60;55.90;;;;;;5076213;28;20020;-75
2021/09/11 10:21:25;;;;;;;5.13;1.90;;;26.50;54.80;;;;;;5076103;28;20478;-74
2021/09/11 10:23:56;;;;;;;3.55;1.50;;;26.40;55.00;;;;;;5076086;28;20029;-73
2021/09/11 10:26:51;;;;;;;5.22;1.70;;;26.10;55.40;;;;;;5075940;28;20036;-72
2021/09/11 10:29:34;;;;;;;2.35;1.30;;;26.10;55.30;;;;;;5075988;28;20020;-72
2021/09/11 10:32:08;;;;;;;3.22;1.38;;;25.90;55.60;;;;;;5074444;28;20028;-72
2021/09/11 10:34:53;;;;;;;2.58;1.55;;;25.70;59.00;;;;;;5075641;28;20129;-73
2021/09/11 10:37:52;;;;;;;3.00;1.40;;;25.40;57.30;;;;;;5075889;28;20158;-71
2021/09/11 10:40:32;;;;;;;5.20;1.60;;;25.20;57.00;;;;;;5064959;28;20521;-72
2021/09/11 10:43:06;;;;;;;4.53;1.50;;;24.90;58.10;;;;;;5075766;28;20093;-73
2021/09/11 10:45:54;;;;;;;2.72;1.38;;;24.70;56.10;;;;;;5075766;28;20056;-74
2021/09/11 10:48:44;;;;;;;2.47;1.15;;;24.60;57.20;;;;;;5075587;28;20024;-73
2021/09/11 10:51:11;;;;;;;;;;;24.30;58.00;;;;;;5076085;28;20051;-71
2021/09/11 10:53:36;;;;;;;2.95;1.50;;;24.10;58.00;;;;;;5075323;28;19909;-73
2021/09/11 10:56:23;;;;;;;3.45;1.40;;;24.00;60.60;;;;;;5075758;28;20090;-73
2021/09/11 10:59:14;;;;;;;5.68;1.52;;;23.90;59.30;;;;;;5075135;28;20115;-74
2021/09/11 11:01:59;;;;;;;4.22;1.30;;;23.80;59.90;;;;;;5075100;28;20448;-71
2021/09/11 11:04:48;;;;;;;4.10;1.52;;;23.60;59.90;;;;;;5075078;28;20028;-74
2021/09/11 11:07:22;;;;;;;5.03;1.42;;;23.50;61.10;;;;;;5062106;28;20087;-72
2021/09/11 11:09:50;;;;;;;3.58;1.40;;;23.50;61.90;;;;;;5075275;28;20033;-74
2021/09/11 11:12:36;;;;;;;3.45;1.50;;;23.30;62.00;;;;;;5075217;28;20027;-71
2021/09/11 11:15:10;;;;;;;2.78;1.45;;;23.40;62.10;;;;;;5075436;28;20023;-74
2021/09/11 11:17:38;;;;;;;3.95;1.45;;;23.30;59.80;;;;;;5075118;28;20024;-71
2021/09/11 11:20:06;;;;;;;2.38;1.23;;;23.20;61.00;;;;;;5074822;28;20024;-74
2021/09/11 11:22:35;;;;;;;3.92;1.38;;;23.20;60.50;;;;;;5074689;28;20029;-72
2021/09/11 11:25:04;;;;;;;4.22;1.30;;;23.10;59.10;;;;;;5074970;28;20027;-73
2021/09/11 11:27:30;;;;;;;2.00;1.13;;;23.10;60.90;;;;;;5074507;28;20035;-72
2021/09/11 11:29:58;;;;;;;4.57;1.35;;;22.90;61.10;;;;;;5074564;28;20021;-74
2021/09/11 11:32:29;;;;;;;2.25;1.15;;;22.80;61.00;;;;;;5075095;28;20463;-73
2021/09/11 11:34:59;;;;;;;3.55;1.33;;;22.80;61.50;;;;;;5074512;28;20066;-71
2021/09/11 11:37:51;;;;;;;2.22;1.10;;;22.80;60.70;;;;;;5074694;28;20024;-73
2021/09/11 11:40:17;;;;;;;2.15;1.33;;;22.70;61.90;;;;;;5069725;28;20036;-70
2021/09/11 11:42:44;;;;;;;2.40;1.17;;;22.60;61.90;;;;;;5074579;28;20025;-73
2021/09/11 11:45:12;;;;;;;2.67;1.38;;;22.60;64.00;;;;;;5074321;28;20027;-73
2021/09/11 11:47:53;;;;;;;3.35;1.50;;;22.70;64.90;;;;;;5074652;28;20055;-72
2021/09/11 11:50:25;;;;;;;3.08;1.33;;;22.70;64.40;;;;;;5074169;28;20028;-73
2021/09/11 11:53:11;;;;;;;4.05;1.83;;;22.60;62.50;;;;;;5074081;28;20035;-72
2021/09/11 11:55:40;;;;;;;3.33;1.50;;;22.60;63.20;;;;;;5074392;28;20492;-72
2021/09/11 11:58:14;;;;;;;3.47;1.25;;;22.50;63.40;;;;;;5073968;28;20035;-71
2021/09/11 12:00:50;;;;;;;3.17;1.27;;;22.40;62.30;;;;;;5074242;28;20020;-72
2021/09/11 12:03:44;;;;;;;5.05;1.55;;;22.30;63.10;;;;;;5074576;28;20027;-74
2021/09/11 12:06:27;;;;;;;3.55;1.35;;;22.30;65.20;;;;;;5074227;28;20032;-73
2021/09/11 12:09:00;;;;;;;2.15;1.50;;;22.40;63.90;;;;;;5073748;28;20112;-72
2021/09/11 12:11:29;;;;;;;2.67;1.50;;;22.40;66.30;;;;;;5074093;28;20046;-71
2021/09/11 12:14:01;;;;;;;1.25;1.10;;;22.40;67.50;;;;;;5072500;28;20024;-72
2021/09/11 12:16:28;;;;;;;4.07;1.48;;;22.50;65.00;;;;;;5074001;28;20056;-71
2021/09/11 12:18:55;;;;;;;2.97;1.50;;;22.60;66.20;;;;;;5073535;28;20047;-71
2021/09/11 12:21:21;;;;;;;5.57;1.77;;;22.70;65.70;;;;;;5072329;28;20166;-71
2021/09/11 12:23:51;;;;;;;1.60;1.30;;;22.80;64.60;;;;;;5073542;28;20070;-75
2021/09/11 12:26:30;;;;;;;3.25;1.30;;;22.80;65.20;;;;;;5073557;28;20029;-73
2021/09/11 12:29:13;;;;;;;4.23;1.50;;;22.80;63.90;;;;;;5071968;28;20379;-73
2021/09/11 12:31:40;;;;;;;2.67;1.45;;;22.70;64.80;;;;;;5074037;28;20253;-71
2021/09/11 12:34:15;;;;;;;2.00;1.10;;;22.70;66.00;;;;;;5073432;28;20016;-72
2021/09/11 12:36:41;;;;;;;4.20;1.55;;;22.90;65.80;;;;;;5073426;28;20025;-73
2021/09/11 12:39:25;;;;;;;1.50;1.30;;;23.00;64.10;;;;;;5073661;28;20024;-71
2021/09/11 12:41:53;;;;;;;3.58;1.35;;;23.30;65.40;;;;;;5073656;28;20028;-73
2021/09/11 12:44:25;;;;;;;1.88;1.30;;;23.30;63.30;;;;;;5073383;28;20048;-73
2021/09/11 12:46:55;;;;;;;3.50;1.60;;;23.20;64.60;;;;;;5073604;28;20035;-73
2021/09/11 12:49:27;;;;;;;3.85;1.45;;;23.10;66.10;;;;;;5073622;28;20490;-72
2021/09/11 12:51:54;;;;;;;3.55;1.30;;;23.10;65.60;;;;;;5072888;28;20052;-72